sensor_id;sensor_type;location;lat;lon;timestamp;pressure;altitude;pressure_sealevel;temperature;humidity
48680;BME280;34475;51.658;5.634;2023-02-22T00:00:00;101320;;;7.1;100.0
48680;BME280;34475;51.658;5.634;2023-02-22T00:01:00;101320;;;6.7;100.0
48680;BME280;34475;51.658;5.634;2023-02-22T00:02:00;101320;;;6.7;100.0
48680;BME280;34475;51.658;5.634;2023-02-22T00:03:00;101320;;;6.5;100.0
48680;BME280;34475;51.658;5.634;2023-02-22T00:04:01;101320;;;6.5;100.0
48680;BME280;34475;51.658;5.634;2023-02-22T00:05:00;101320;;;6.5;100.0
48680;BME280;34475;51.658;5.634;2023-02-22T00:06:01;101320;;;6.5;100.0
48680;BME280;34475;51.658;5.634;2023-02-22T00:07:00;101320;;;6.4;100.0
48680;BME280;34475;51.658;5.634;2023-02-22T00:08:00;101320;;;6.4;100.0
48680;BME280;34475;51.658;5.634;2023-02-22T00:09:00;101330;;;6.4;100.0
48680;BME280;34475;51.658;5.634;2023-02-22T00:10:00;101330;;;6.4;100.0
48680;BME280;34475;51.658;5.634;2023-02-22T00:11:01;101320;;;6.6;100.0
48680;BME280;34475;51.658;5.634;2023-02-22T00:12:00;101320;;;6.6;100.0
48680;BME280;34475;51.658;5.634;2023-02-22T00:13:00;101320;;;6.7;100.0
48680;BME280;34475;51.658;5.634;2023-02-22T00:14:00;101320;;;6.7;100.0
48680;BME280;34475;51.658;5.634;2023-02-22T00:15:00;101320;;;6.7;100.0
48680;BME280;34475;51.658;5.634;2023-02-22T00:16:00;101320;;;6.7;100.0
48680;BME280;34475;51.658;5.634;2023-02-22T00:17:00;101320;;;6.7;100.0
48680;BME280;34475;51.658;5.634;2023-02-22T00:18:00;101320;;;6.7;100.0
48680;BME280;34475;51.658;5.634;2023-02-22T00:19:00;101320;;;6.7;100.0
48680;BME280;34475;51.658;5.634;2023-02-22T00:20:00;101320;;;6.7;100.0
48680;BME280;34475;51.658;5.634;2023-02-22T00:21:00;101320;;;6.8;100.0
48680;BME280;34475;51.658;5.634;2023-02-22T00:22:00;101320;;;6.8;100.0
48680;BME280;34475;51.658;5.634;2023-02-22T00:23:00;101320;;;6.7;100.0
48680;BME280;34475;51.658;5.634;2023-02-22T00:24:00;101320;;;6.7;100.0
48680;BME280;34475;51.658;5.634;2023-02-22T00:25:00;101320;;;6.7;100.0
48680;BME280;34475;51.658;5.634;2023-02-22T00:26:00;101320;;;6.7;100.0
48680;BME280;34475;51.658;5.634;2023-02-22T00:27:00;101320;;;6.7;100.0
48680;BME280;34475;51.658;5.634;2023-02-22T00:28:00;101320;;;6.7;100.0
48680;BME280;34475;51.658;5.634;2023-02-22T00:29:00;101320;;;6.8;100.0
48680;BME280;34475;51.658;5.634;2023-02-22T00:30:00;101320;;;6.8;100.0
48680;BME280;34475;51.658;5.634;2023-02-22T00:31:00;101320;;;6.8;100.0
48680;BME280;34475;51.658;5.634;2023-02-22T00:32:00;101320;;;6.8;100.0
48680;BME280;34475;51.658;5.634;2023-02-22T00:33:00;101330;;;6.7;100.0
48680;BME280;34475;51.658;5.634;2023-02-22T00:34:00;101330;;;6.7;100.0
48680;BME280;34475;51.658;5.634;2023-02-22T00:35:00;101320;;;6.8;100.0
48680;BME280;34475;51.658;5.634;2023-02-22T00:36:00;101320;;;6.8;100.0
48680;BME280;34475;51.658;5.634;2023-02-22T00:37:00;101320;;;6.6;100.0
48680;BME280;34475;51.658;5.634;2023-02-22T00:38:00;101320;;;6.6;100.0
48680;BME280;34475;51.658;5.634;2023-02-22T00:39:00;101330;;;6.6;100.0
48680;BME280;34475;51.658;5.634;2023-02-22T00:40:00;101330;;;6.6;100.0
48680;BME280;34475;51.658;5.634;2023-02-22T00:41:00;101320;;;6.6;100.0
48680;BME280;34475;51.658;5.634;2023-02-22T00:42:00;101320;;;6.6;100.0
48680;BME280;34475;51.658;5.634;2023-02-22T00:43:01;101320;;;6.7;100.0
48680;BME280;34475;51.658;5.634;2023-02-22T00:44:00;101320;;;6.7;100.0
48680;BME280;34475;51.658;5.634;2023-02-22T00:45:00;101310;;;6.6;100.0
48680;BME280;34475;51.658;5.634;2023-02-22T00:46:00;101310;;;6.6;100.0
48680;BME280;34475;51.658;5.634;2023-02-22T00:47:00;101320;;;6.7;100.0
48680;BME280;34475;51.658;5.634;2023-02-22T00:48:00;101320;;;6.7;100.0
48680;BME280;34475;51.658;5.634;2023-02-22T00:49:00;101310;;;6.8;100.0
48680;BME280;34475;51.658;5.634;2023-02-22T00:50:00;101310;;;6.8;100.0
48680;BME280;34475;51.658;5.634;2023-02-22T00:51:00;101310;;;6.8;100.0
48680;BME280;34475;51.658;5.634;2023-02-22T00:52:00;101310;;;6.8;100.0
48680;BME280;34475;51.658;5.634;2023-02-22T00:53:00;101310;;;6.8;100.0
48680;BME280;34475;51.658;5.634;2023-02-22T00:54:00;101310;;;6.8;100.0
48680;BME280;34475;51.658;5.634;2023-02-22T00:55:00;101310;;;6.7;100.0
48680;BME280;34475;51.658;5.634;2023-02-22T00:56:00;101310;;;6.7;100.0
48680;BME280;34475;51.658;5.634;2023-02-22T00:57:00;101310;;;6.5;100.0
48680;BME280;34475;51.658;5.634;2023-02-22T00:58:00;101310;;;6.5;100.0
48680;BME280;34475;51.658;5.634;2023-02-22T00:59:00;101300;;;6.6;100.0
48680;BME280;34475;51.658;5.634;2023-02-22T01:00:01;101300;;;6.6;100.0
48680;BME280;34475;51.658;5.634;2023-02-22T01:01:00;101300;;;6.7;100.0
48680;BME280;34475;51.658;5.634;2023-02-22T01:02:00;101300;;;6.7;100.0
48680;BME280;34475;51.658;5.634;2023-02-22T01:03:00;101300;;;6.7;100.0
48680;BME280;34475;51.658;5.634;2023-02-22T01:04:00;101300;;;6.7;100.0
48680;BME280;34475;51.658;5.634;2023-02-22T01:05:00;101300;;;6.7;100.0
48680;BME280;34475;51.658;5.634;2023-02-22T01:06:00;101300;;;6.7;100.0
48680;BME280;34475;51.658;5.634;2023-02-22T01:07:00;101300;;;6.6;100.0
48680;BME280;34475;51.658;5.634;2023-02-22T01:08:00;101300;;;6.6;100.0
48680;BME280;34475;51.658;5.634;2023-02-22T01:09:00;101300;;;6.6;100.0
48680;BME280;34475;51.658;5.634;2023-02-22T01:10:00;101300;;;6.6;100.0
48680;BME280;34475;51.658;5.634;2023-02-22T01:11:00;101300;;;6.6;100.0
48680;BME280;34475;51.658;5.634;2023-02-22T01:12:00;101300;;;6.6;100.0
48680;BME280;34475;51.658;5.634;2023-02-22T01:13:00;101300;;;6.4;100.0
48680;BME280;34475;51.658;5.634;2023-02-22T01:14:00;101300;;;6.4;100.0
48680;BME280;34475;51.658;5.634;2023-02-22T01:15:00;101290;;;6.5;100.0
48680;BME280;34475;51.658;5.634;2023-02-22T01:16:00;101290;;;6.5;100.0
48680;BME280;34475;51.658;5.634;2023-02-22T01:17:00;101300;;;6.4;100.0
48680;BME280;34475;51.658;5.634;2023-02-22T01:18:00;101300;;;6.4;100.0
48680;BME280;34475;51.658;5.634;2023-02-22T01:19:00;101290;;;6.4;100.0
48680;BME280;34475;51.658;5.634;2023-02-22T01:20:00;101290;;;6.4;100.0
48680;BME280;34475;51.658;5.634;2023-02-22T01:21:00;101290;;;6.6;100.0
48680;BME280;34475;51.658;5.634;2023-02-22T01:22:00;101290;;;6.6;100.0
48680;BME280;34475;51.658;5.634;2023-02-22T01:23:00;101290;;;6.5;100.0
48680;BME280;34475;51.658;5.634;2023-02-22T01:24:00;101290;;;6.5;100.0
48680;BME280;34475;51.658;5.634;2023-02-22T01:25:00;101290;;;6.4;100.0
48680;BME280;34475;51.658;5.634;2023-02-22T01:26:00;101290;;;6.4;100.0
48680;BME280;34475;51.658;5.634;2023-02-22T01:27:00;101290;;;6.5;100.0
48680;BME280;34475;51.658;5.634;2023-02-22T01:28:00;101290;;;6.5;100.0
48680;BME280;34475;51.658;5.634;2023-02-22T01:29:00;101290;;;6.6;100.0
48680;BME280;34475;51.658;5.634;2023-02-22T01:30:00;101290;;;6.6;100.0
48680;BME280;34475;51.658;5.634;2023-02-22T01:31:00;101280;;;6.7;100.0
48680;BME280;34475;51.658;5.634;2023-02-22T01:32:00;101280;;;6.7;100.0
48680;BME280;34475;51.658;5.634;2023-02-22T01:33:00;101280;;;6.6;100.0
48680;BME280;34475;51.658;5.634;2023-02-22T01:34:00;101280;;;6.6;100.0
48680;BME280;34475;51.658;5.634;2023-02-22T01:35:00;101280;;;6.6;100.0
48680;BME280;34475;51.658;5.634;2023-02-22T01:36:00;101280;;;6.6;100.0
48680;BME280;34475;51.658;5.634;2023-02-22T01:37:00;101270;;;6.5;100.0
48680;BME280;34475;51.658;5.634;2023-02-22T01:38:00;101270;;;6.5;100.0
48680;BME280;34475;51.658;5.634;2023-02-22T01:39:00;101270;;;6.7;100.0
48680;BME280;34475;51.658;5.634;2023-02-22T01:40:00;101270;;;6.7;100.0
48680;BME280;34475;51.658;5.634;2023-02-22T01:41:00;101270;;;6.7;100.0
48680;BME280;34475;51.658;5.634;2023-02-22T01:42:00;101270;;;6.7;100.0
48680;BME280;34475;51.658;5.634;2023-02-22T01:43:01;101270;;;6.7;100.0
48680;BME280;34475;51.658;5.634;2023-02-22T01:44:16;101270;;;6.7;100.0
48680;BME280;34475;51.658;5.634;2023-02-22T01:46:02;101270;;;6.6;100.0
48680;BME280;34475;51.658;5.634;2023-02-22T01:47:01;101260;;;6.6;100.0
48680;BME280;34475;51.658;5.634;2023-02-22T01:48:03;101260;;;6.6;100.0
48680;BME280;34475;51.658;5.634;2023-02-22T01:49:01;101260;;;6.5;100.0
48680;BME280;34475;51.658;5.634;2023-02-22T01:50:00;101260;;;6.5;100.0
48680;BME280;34475;51.658;5.634;2023-02-22T01:51:16;101260;;;6.6;100.0
48680;BME280;34475;51.658;5.634;2023-02-22T01:52:01;101260;;;6.6;100.0
48680;BME280;34475;51.658;5.634;2023-02-22T01:53:00;101260;;;6.7;100.0
48680;BME280;34475;51.658;5.634;2023-02-22T01:54:02;101260;;;6.7;100.0
48680;BME280;34475;51.658;5.634;2023-02-22T01:55:00;101260;;;6.7;100.0
48680;BME280;34475;51.658;5.634;2023-02-22T01:56:00;101260;;;6.7;100.0
48680;BME280;34475;51.658;5.634;2023-02-22T01:58:00;101260;;;6.5;100.0
48680;BME280;34475;51.658;5.634;2023-02-22T01:59:01;101260;;;6.5;100.0
48680;BME280;34475;51.658;5.634;2023-02-22T02:00:02;101260;;;6.5;100.0
48680;BME280;34475;51.658;5.634;2023-02-22T02:01:00;101260;;;6.5;100.0
48680;BME280;34475;51.658;5.634;2023-02-22T02:02:00;101260;;;6.5;100.0
48680;BME280;34475;51.658;5.634;2023-02-22T02:03:01;101260;;;6.3;100.0
48680;BME280;34475;51.658;5.634;2023-02-22T02:04:01;101260;;;6.3;100.0
48680;BME280;34475;51.658;5.634;2023-02-22T02:05:00;101260;;;6.4;100.0
48680;BME280;34475;51.658;5.634;2023-02-22T02:06:01;101260;;;6.4;100.0
48680;BME280;34475;51.658;5.634;2023-02-22T02:07:01;101260;;;6.4;100.0
48680;BME280;34475;51.658;5.634;2023-02-22T02:08:00;101260;;;6.4;100.0
48680;BME280;34475;51.658;5.634;2023-02-22T02:09:04;101250;;;6.5;100.0
48680;BME280;34475;51.658;5.634;2023-02-22T02:10:01;101250;;;6.5;100.0
48680;BME280;34475;51.658;5.634;2023-02-22T02:11:00;101260;;;6.6;100.0
48680;BME280;34475;51.658;5.634;2023-02-22T02:12:00;101260;;;6.6;100.0
48680;BME280;34475;51.658;5.634;2023-02-22T02:13:00;101250;;;6.5;100.0
48680;BME280;34475;51.658;5.634;2023-02-22T02:14:00;101250;;;6.5;100.0
48680;BME280;34475;51.658;5.634;2023-02-22T02:16:00;101250;;;6.5;100.0
48680;BME280;34475;51.658;5.634;2023-02-22T02:17:00;101240;;;6.4;100.0
48680;BME280;34475;51.658;5.634;2023-02-22T02:18:02;101240;;;6.4;100.0
48680;BME280;34475;51.658;5.634;2023-02-22T02:19:00;101240;;;6.4;100.0
48680;BME280;34475;51.658;5.634;2023-02-22T02:23:05;101240;;;6.2;100.0
48680;BME280;34475;51.658;5.634;2023-02-22T02:26:22;101240;;;6.5;100.0
48680;BME280;34475;51.658;5.634;2023-02-22T02:28:04;101230;;;6.4;100.0
48680;BME280;34475;51.658;5.634;2023-02-22T02:30:13;101230;;;6.4;100.0
48680;BME280;34475;51.658;5.634;2023-02-22T02:31:04;101230;;;6.3;100.0
48680;BME280;34475;51.658;5.634;2023-02-22T02:34:04;101220;;;6.2;100.0
48680;BME280;34475;51.658;5.634;2023-02-22T02:36:02;101220;;;6.1;100.0
48680;BME280;34475;51.658;5.634;2023-02-22T02:39:11;101210;;;6.3;100.0
48680;BME280;34475;51.658;5.634;2023-02-22T02:40:05;101210;;;6.3;100.0
48680;BME280;34475;51.658;5.634;2023-02-22T02:42:00;101210;;;6.4;100.0
48680;BME280;34475;51.658;5.634;2023-02-22T02:43:03;101210;;;6.3;100.0
48680;BME280;34475;51.658;5.634;2023-02-22T02:44:02;101210;;;6.3;100.0
48680;BME280;34475;51.658;5.634;2023-02-22T02:45:03;101210;;;6.3;100.0
48680;BME280;34475;51.658;5.634;2023-02-22T02:46:02;101210;;;6.3;100.0
48680;BME280;34475;51.658;5.634;2023-02-22T02:47:01;101210;;;6.3;100.0
48680;BME280;34475;51.658;5.634;2023-02-22T02:48:00;101210;;;6.3;100.0
48680;BME280;34475;51.658;5.634;2023-02-22T02:49:02;101210;;;6.3;100.0
48680;BME280;34475;51.658;5.634;2023-02-22T02:50:04;101210;;;6.3;100.0
48680;BME280;34475;51.658;5.634;2023-02-22T02:51:00;101200;;;6.1;100.0
48680;BME280;34475;51.658;5.634;2023-02-22T02:52:00;101200;;;6.1;100.0
48680;BME280;34475;51.658;5.634;2023-02-22T02:53:00;101200;;;6.3;100.0
48680;BME280;34475;51.658;5.634;2023-02-22T02:54:00;101200;;;6.3;100.0
48680;BME280;34475;51.658;5.634;2023-02-22T02:55:01;101190;;;6.1;100.0
48680;BME280;34475;51.658;5.634;2023-02-22T02:56:00;101190;;;6.1;100.0
48680;BME280;34475;51.658;5.634;2023-02-22T02:57:01;101190;;;6.1;100.0
48680;BME280;34475;51.658;5.634;2023-02-22T02:58:00;101190;;;6.1;100.0
48680;BME280;34475;51.658;5.634;2023-02-22T02:59:00;101190;;;6.1;100.0
48680;BME280;34475;51.658;5.634;2023-02-22T03:00:00;101190;;;6.1;100.0
48680;BME280;34475;51.658;5.634;2023-02-22T03:01:00;101200;;;6.0;100.0
48680;BME280;34475;51.658;5.634;2023-02-22T03:04:03;101200;;;6.2;100.0
48680;BME280;34475;51.658;5.634;2023-02-22T03:08:04;101200;;;6.2;100.0
48680;BME280;34475;51.658;5.634;2023-02-22T03:09:05;101200;;;6.0;100.0
48680;BME280;34475;51.658;5.634;2023-02-22T03:10:11;101200;;;6.0;100.0
48680;BME280;34475;51.658;5.634;2023-02-22T03:12:17;101200;;;6.1;100.0
48680;BME280;34475;51.658;5.634;2023-02-22T03:14:21;101200;;;6.1;100.0
48680;BME280;34475;51.658;5.634;2023-02-22T03:15:18;101200;;;6.1;100.0
48680;BME280;34475;51.658;5.634;2023-02-22T03:17:03;101200;;;6.0;100.0
48680;BME280;34475;51.658;5.634;2023-02-22T03:18:03;101200;;;6.0;100.0
48680;BME280;34475;51.658;5.634;2023-02-22T03:20:02;101190;;;6.1;100.0
48680;BME280;34475;51.658;5.634;2023-02-22T03:21:06;101190;;;6.2;100.0
48680;BME280;34475;51.658;5.634;2023-02-22T03:22:02;101190;;;6.2;100.0
48680;BME280;34475;51.658;5.634;2023-02-22T03:23:03;101190;;;6.1;100.0
48680;BME280;34475;51.658;5.634;2023-02-22T03:24:17;101190;;;6.1;100.0
48680;BME280;34475;51.658;5.634;2023-02-22T03:25:01;101190;;;5.9;100.0
48680;BME280;34475;51.658;5.634;2023-02-22T03:26:02;101190;;;5.9;100.0
48680;BME280;34475;51.658;5.634;2023-02-22T03:27:19;101190;;;5.9;100.0
48680;BME280;34475;51.658;5.634;2023-02-22T03:28:02;101190;;;5.9;100.0
48680;BME280;34475;51.658;5.634;2023-02-22T03:29:00;101190;;;6.0;100.0
48680;BME280;34475;51.658;5.634;2023-02-22T03:30:01;101190;;;6.0;100.0
48680;BME280;34475;51.658;5.634;2023-02-22T03:31:01;101190;;;5.9;100.0
48680;BME280;34475;51.658;5.634;2023-02-22T03:32:00;101190;;;5.9;100.0
48680;BME280;34475;51.658;5.634;2023-02-22T03:33:02;101180;;;6.0;100.0
48680;BME280;34475;51.658;5.634;2023-02-22T03:34:01;101180;;;6.0;100.0
48680;BME280;34475;51.658;5.634;2023-02-22T03:35:02;101190;;;5.8;100.0
48680;BME280;34475;51.658;5.634;2023-02-22T03:36:02;101190;;;5.8;100.0
48680;BME280;34475;51.658;5.634;2023-02-22T03:37:02;101180;;;5.7;100.0
48680;BME280;34475;51.658;5.634;2023-02-22T03:38:01;101180;;;5.7;100.0
48680;BME280;34475;51.658;5.634;2023-02-22T03:39:00;101180;;;5.7;100.0
48680;BME280;34475;51.658;5.634;2023-02-22T03:40:00;101180;;;5.7;100.0
48680;BME280;34475;51.658;5.634;2023-02-22T03:41:00;101180;;;5.7;100.0
48680;BME280;34475;51.658;5.634;2023-02-22T03:42:02;101180;;;5.7;100.0
48680;BME280;34475;51.658;5.634;2023-02-22T03:43:04;101180;;;5.7;100.0
48680;BME280;34475;51.658;5.634;2023-02-22T03:44:04;101180;;;5.7;100.0
48680;BME280;34475;51.658;5.634;2023-02-22T03:45:01;101180;;;5.8;100.0
48680;BME280;34475;51.658;5.634;2023-02-22T03:46:00;101180;;;5.8;100.0
48680;BME280;34475;51.658;5.634;2023-02-22T03:47:00;101170;;;5.8;100.0
48680;BME280;34475;51.658;5.634;2023-02-22T03:48:02;101170;;;5.8;100.0
48680;BME280;34475;51.658;5.634;2023-02-22T03:49:02;101170;;;5.8;100.0
48680;BME280;34475;51.658;5.634;2023-02-22T03:50:02;101170;;;5.8;100.0
48680;BME280;34475;51.658;5.634;2023-02-22T03:51:00;101170;;;5.8;100.0
48680;BME280;34475;51.658;5.634;2023-02-22T03:52:00;101170;;;5.8;100.0
48680;BME280;34475;51.658;5.634;2023-02-22T03:53:00;101170;;;5.8;100.0
48680;BME280;34475;51.658;5.634;2023-02-22T03:54:00;101170;;;5.8;100.0
48680;BME280;34475;51.658;5.634;2023-02-22T03:55:00;101160;;;5.8;100.0
48680;BME280;34475;51.658;5.634;2023-02-22T03:56:00;101160;;;5.8;100.0
48680;BME280;34475;51.658;5.634;2023-02-22T03:57:09;101160;;;5.7;100.0
48680;BME280;34475;51.658;5.634;2023-02-22T03:58:01;101160;;;5.7;100.0
48680;BME280;34475;51.658;5.634;2023-02-22T03:59:01;101160;;;5.8;100.0
48680;BME280;34475;51.658;5.634;2023-02-22T04:00:00;101160;;;5.8;100.0
48680;BME280;34475;51.658;5.634;2023-02-22T04:01:00;101160;;;5.6;100.0
48680;BME280;34475;51.658;5.634;2023-02-22T04:02:00;101160;;;5.6;100.0
48680;BME280;34475;51.658;5.634;2023-02-22T04:03:00;101160;;;5.7;100.0
48680;BME280;34475;51.658;5.634;2023-02-22T04:04:00;101160;;;5.7;100.0
48680;BME280;34475;51.658;5.634;2023-02-22T04:05:00;101150;;;5.6;100.0
48680;BME280;34475;51.658;5.634;2023-02-22T04:06:00;101150;;;5.6;100.0
48680;BME280;34475;51.658;5.634;2023-02-22T04:07:00;101150;;;5.7;100.0
48680;BME280;34475;51.658;5.634;2023-02-22T04:08:00;101150;;;5.7;100.0
48680;BME280;34475;51.658;5.634;2023-02-22T04:09:00;101150;;;5.7;100.0
48680;BME280;34475;51.658;5.634;2023-02-22T04:10:00;101150;;;5.7;100.0
48680;BME280;34475;51.658;5.634;2023-02-22T04:11:00;101160;;;5.6;100.0
48680;BME280;34475;51.658;5.634;2023-02-22T04:12:00;101160;;;5.6;100.0
48680;BME280;34475;51.658;5.634;2023-02-22T04:13:00;101150;;;5.5;100.0
48680;BME280;34475;51.658;5.634;2023-02-22T04:14:00;101150;;;5.5;100.0
48680;BME280;34475;51.658;5.634;2023-02-22T04:15:00;101150;;;5.7;100.0
48680;BME280;34475;51.658;5.634;2023-02-22T04:16:00;101150;;;5.7;100.0
48680;BME280;34475;51.658;5.634;2023-02-22T04:17:00;101150;;;5.7;100.0
48680;BME280;34475;51.658;5.634;2023-02-22T04:18:00;101150;;;5.7;100.0
48680;BME280;34475;51.658;5.634;2023-02-22T04:19:00;101140;;;5.6;100.0
48680;BME280;34475;51.658;5.634;2023-02-22T04:20:00;101140;;;5.6;100.0
48680;BME280;34475;51.658;5.634;2023-02-22T04:21:00;101140;;;5.7;100.0
48680;BME280;34475;51.658;5.634;2023-02-22T04:22:00;101140;;;5.7;100.0
48680;BME280;34475;51.658;5.634;2023-02-22T04:23:00;101140;;;5.6;100.0
48680;BME280;34475;51.658;5.634;2023-02-22T04:24:00;101140;;;5.6;100.0
48680;BME280;34475;51.658;5.634;2023-02-22T04:25:00;101130;;;5.6;100.0
48680;BME280;34475;51.658;5.634;2023-02-22T04:26:00;101130;;;5.6;100.0
48680;BME280;34475;51.658;5.634;2023-02-22T04:27:00;101120;;;5.7;100.0
48680;BME280;34475;51.658;5.634;2023-02-22T04:28:00;101120;;;5.7;100.0
48680;BME280;34475;51.658;5.634;2023-02-22T04:29:00;101120;;;5.7;100.0
48680;BME280;34475;51.658;5.634;2023-02-22T04:30:00;101120;;;5.7;100.0
48680;BME280;34475;51.658;5.634;2023-02-22T04:31:00;101120;;;5.7;100.0
48680;BME280;34475;51.658;5.634;2023-02-22T04:32:00;101120;;;5.7;100.0
48680;BME280;34475;51.658;5.634;2023-02-22T04:33:00;101110;;;5.5;100.0
48680;BME280;34475;51.658;5.634;2023-02-22T04:34:00;101110;;;5.5;100.0
48680;BME280;34475;51.658;5.634;2023-02-22T04:35:00;101110;;;5.3;100.0
48680;BME280;34475;51.658;5.634;2023-02-22T04:36:00;101110;;;5.3;100.0
48680;BME280;34475;51.658;5.634;2023-02-22T04:37:00;101110;;;5.4;100.0
48680;BME280;34475;51.658;5.634;2023-02-22T04:38:00;101110;;;5.4;100.0
48680;BME280;34475;51.658;5.634;2023-02-22T04:39:00;101100;;;5.4;100.0
48680;BME280;34475;51.658;5.634;2023-02-22T04:40:00;101100;;;5.4;100.0
48680;BME280;34475;51.658;5.634;2023-02-22T04:41:00;101100;;;5.5;100.0
48680;BME280;34475;51.658;5.634;2023-02-22T04:42:00;101100;;;5.5;100.0
48680;BME280;34475;51.658;5.634;2023-02-22T04:43:00;101100;;;5.1;100.0
48680;BME280;34475;51.658;5.634;2023-02-22T04:44:00;101100;;;5.1;100.0
48680;BME280;34475;51.658;5.634;2023-02-22T04:45:00;101100;;;5.1;100.0
48680;BME280;34475;51.658;5.634;2023-02-22T04:46:00;101100;;;5.1;100.0
48680;BME280;34475;51.658;5.634;2023-02-22T04:47:00;101100;;;4.9;100.0
48680;BME280;34475;51.658;5.634;2023-02-22T04:48:00;101100;;;4.9;100.0
48680;BME280;34475;51.658;5.634;2023-02-22T04:49:00;101100;;;5.1;100.0
48680;BME280;34475;51.658;5.634;2023-02-22T04:50:00;101100;;;5.1;100.0
48680;BME280;34475;51.658;5.634;2023-02-22T04:51:00;101110;;;5.3;100.0
48680;BME280;34475;51.658;5.634;2023-02-22T04:52:00;101110;;;5.3;100.0
48680;BME280;34475;51.658;5.634;2023-02-22T04:53:00;101100;;;5.2;100.0
48680;BME280;34475;51.658;5.634;2023-02-22T04:54:00;101100;;;5.2;100.0
48680;BME280;34475;51.658;5.634;2023-02-22T04:55:00;101100;;;5.1;100.0
48680;BME280;34475;51.658;5.634;2023-02-22T04:56:00;101100;;;5.1;100.0
48680;BME280;34475;51.658;5.634;2023-02-22T04:57:00;101110;;;5.3;100.0
48680;BME280;34475;51.658;5.634;2023-02-22T04:58:00;101110;;;5.3;100.0
48680;BME280;34475;51.658;5.634;2023-02-22T04:59:00;101110;;;5.3;100.0
48680;BME280;34475;51.658;5.634;2023-02-22T05:00:00;101110;;;5.3;100.0
48680;BME280;34475;51.658;5.634;2023-02-22T05:01:00;101100;;;5.4;100.0
48680;BME280;34475;51.658;5.634;2023-02-22T05:02:00;101100;;;5.4;100.0
48680;BME280;34475;51.658;5.634;2023-02-22T05:03:00;101100;;;5.5;100.0
48680;BME280;34475;51.658;5.634;2023-02-22T05:04:01;101100;;;5.5;100.0
48680;BME280;34475;51.658;5.634;2023-02-22T05:05:00;101090;;;5.5;100.0
48680;BME280;34475;51.658;5.634;2023-02-22T05:06:00;101090;;;5.5;100.0
48680;BME280;34475;51.658;5.634;2023-02-22T05:07:00;101100;;;5.4;100.0
48680;BME280;34475;51.658;5.634;2023-02-22T05:08:00;101100;;;5.4;100.0
48680;BME280;34475;51.658;5.634;2023-02-22T05:09:00;101090;;;5.2;100.0
48680;BME280;34475;51.658;5.634;2023-02-22T05:10:00;101090;;;5.2;100.0
48680;BME280;34475;51.658;5.634;2023-02-22T05:11:00;101090;;;5.3;100.0
48680;BME280;34475;51.658;5.634;2023-02-22T05:12:00;101090;;;5.3;100.0
48680;BME280;34475;51.658;5.634;2023-02-22T05:13:00;101100;;;5.3;100.0
48680;BME280;34475;51.658;5.634;2023-02-22T05:14:00;101100;;;5.3;100.0
48680;BME280;34475;51.658;5.634;2023-02-22T05:15:00;101090;;;5.2;100.0
48680;BME280;34475;51.658;5.634;2023-02-22T05:16:00;101090;;;5.2;100.0
48680;BME280;34475;51.658;5.634;2023-02-22T05:17:00;101090;;;5.4;100.0
48680;BME280;34475;51.658;5.634;2023-02-22T05:18:00;101090;;;5.4;100.0
48680;BME280;34475;51.658;5.634;2023-02-22T05:19:00;101090;;;5.5;100.0
48680;BME280;34475;51.658;5.634;2023-02-22T05:20:00;101090;;;5.5;100.0
48680;BME280;34475;51.658;5.634;2023-02-22T05:21:00;101080;;;5.4;100.0
48680;BME280;34475;51.658;5.634;2023-02-22T05:22:00;101080;;;5.4;100.0
48680;BME280;34475;51.658;5.634;2023-02-22T05:23:00;101090;;;5.5;100.0
48680;BME280;34475;51.658;5.634;2023-02-22T05:24:00;101090;;;5.5;100.0
48680;BME280;34475;51.658;5.634;2023-02-22T05:25:00;101100;;;5.5;100.0
48680;BME280;34475;51.658;5.634;2023-02-22T05:26:00;101100;;;5.5;100.0
48680;BME280;34475;51.658;5.634;2023-02-22T05:27:00;101090;;;5.4;100.0
48680;BME280;34475;51.658;5.634;2023-02-22T05:28:06;101090;;;5.4;100.0
48680;BME280;34475;51.658;5.634;2023-02-22T05:29:00;101090;;;5.5;100.0
48680;BME280;34475;51.658;5.634;2023-02-22T05:30:00;101090;;;5.5;100.0
48680;BME280;34475;51.658;5.634;2023-02-22T05:31:00;101080;;;5.5;100.0
48680;BME280;34475;51.658;5.634;2023-02-22T05:32:00;101080;;;5.5;100.0
48680;BME280;34475;51.658;5.634;2023-02-22T05:33:00;101080;;;5.6;100.0
48680;BME280;34475;51.658;5.634;2023-02-22T05:34:00;101080;;;5.6;100.0
48680;BME280;34475;51.658;5.634;2023-02-22T05:35:00;101080;;;5.5;100.0
48680;BME280;34475;51.658;5.634;2023-02-22T05:36:00;101080;;;5.5;100.0
48680;BME280;34475;51.658;5.634;2023-02-22T05:37:00;101080;;;5.6;100.0
48680;BME280;34475;51.658;5.634;2023-02-22T05:38:00;101080;;;5.6;100.0
48680;BME280;34475;51.658;5.634;2023-02-22T05:39:00;101080;;;5.6;100.0
48680;BME280;34475;51.658;5.634;2023-02-22T05:40:00;101080;;;5.6;100.0
48680;BME280;34475;51.658;5.634;2023-02-22T05:41:00;101080;;;5.7;100.0
48680;BME280;34475;51.658;5.634;2023-02-22T05:42:00;101080;;;5.7;100.0
48680;BME280;34475;51.658;5.634;2023-02-22T05:43:00;101070;;;5.7;100.0
48680;BME280;34475;51.658;5.634;2023-02-22T05:44:00;101070;;;5.7;100.0
48680;BME280;34475;51.658;5.634;2023-02-22T05:45:00;101070;;;5.8;100.0
48680;BME280;34475;51.658;5.634;2023-02-22T05:46:00;101070;;;5.8;100.0
48680;BME280;34475;51.658;5.634;2023-02-22T05:47:00;101070;;;5.8;100.0
48680;BME280;34475;51.658;5.634;2023-02-22T05:48:00;101070;;;5.8;100.0
48680;BME280;34475;51.658;5.634;2023-02-22T05:49:00;101070;;;6.0;100.0
48680;BME280;34475;51.658;5.634;2023-02-22T05:50:00;101070;;;6.0;100.0
48680;BME280;34475;51.658;5.634;2023-02-22T05:51:00;101070;;;5.9;100.0
48680;BME280;34475;51.658;5.634;2023-02-22T05:52:00;101070;;;5.9;100.0
48680;BME280;34475;51.658;5.634;2023-02-22T05:53:00;101070;;;5.9;100.0
48680;BME280;34475;51.658;5.634;2023-02-22T05:54:00;101070;;;5.9;100.0
48680;BME280;34475;51.658;5.634;2023-02-22T05:55:00;101060;;;6.0;100.0
48680;BME280;34475;51.658;5.634;2023-02-22T05:56:00;101060;;;6.0;100.0
48680;BME280;34475;51.658;5.634;2023-02-22T05:57:00;101060;;;5.8;100.0
48680;BME280;34475;51.658;5.634;2023-02-22T05:58:00;101060;;;5.8;100.0
48680;BME280;34475;51.658;5.634;2023-02-22T05:59:00;101050;;;5.9;100.0
48680;BME280;34475;51.658;5.634;2023-02-22T06:00:00;101050;;;5.9;100.0